createdAt,value
2022-10-06T00:00:19.516Z,1.80
2022-10-06T00:01:19.685Z,1.70
2022-10-06T00:02:19.532Z,1.70
2022-10-06T00:03:19.487Z,1.80
2022-10-06T00:04:19.471Z,1.80
2022-10-06T00:05:19.472Z,1.70
2022-10-06T00:06:19.451Z,2.00
2022-10-06T00:07:19.453Z,1.90
2022-10-06T00:08:19.429Z,2.00
2022-10-06T00:09:19.422Z,1.50
2022-10-06T00:10:19.409Z,1.80
2022-10-06T00:11:19.412Z,1.80
2022-10-06T00:12:19.388Z,1.90
2022-10-06T00:13:19.378Z,1.50
2022-10-06T00:14:19.365Z,2.10
2022-10-06T00:15:19.379Z,1.70
2022-10-06T00:16:19.384Z,1.60
2022-10-06T00:17:19.335Z,1.90
2022-10-06T00:18:19.323Z,2.00
2022-10-06T00:19:19.315Z,2.00
2022-10-06T00:20:19.300Z,1.60
2022-10-06T00:21:19.300Z,2.00
2022-10-06T00:22:19.291Z,1.80
2022-10-06T00:23:19.270Z,2.00
2022-10-06T00:24:19.267Z,1.70
2022-10-06T00:25:19.250Z,1.90
2022-10-06T00:26:19.238Z,1.90
2022-10-06T00:27:19.238Z,2.10
2022-10-06T00:28:19.304Z,1.60
2022-10-06T00:29:19.206Z,2.10
2022-10-06T00:30:19.191Z,1.70
2022-10-06T00:31:19.271Z,1.90
2022-10-06T00:32:19.171Z,1.90
2022-10-06T00:33:19.172Z,2.20
2022-10-06T00:34:19.171Z,1.90
2022-10-06T00:35:19.142Z,2.10
2022-10-06T00:36:19.131Z,2.10
2022-10-06T00:37:19.122Z,1.40
2022-10-06T00:38:19.107Z,1.80
2022-10-06T00:39:19.108Z,1.80
2022-10-06T00:40:19.086Z,2.20
2022-10-06T00:41:19.078Z,1.80
2022-10-06T00:42:19.065Z,2.00
2022-10-06T00:43:19.055Z,2.00
2022-10-06T00:44:19.050Z,1.50
2022-10-06T00:45:19.038Z,1.80
2022-10-06T00:46:19.110Z,1.80
2022-10-06T00:47:19.043Z,1.60
2022-10-06T00:48:19.002Z,1.60
2022-10-06T00:49:19.000Z,2.30
2022-10-06T00:50:18.976Z,1.60
2022-10-06T00:51:18.969Z,1.60
2022-10-06T00:52:18.957Z,1.70
2022-10-06T00:53:18.952Z,1.70
2022-10-06T00:54:18.947Z,1.60
2022-10-06T00:55:18.947Z,2.00
2022-10-06T00:56:18.912Z,1.60
2022-10-06T00:57:18.903Z,2.00
2022-10-06T00:58:18.893Z,1.90
2022-10-06T00:59:18.886Z,1.80
2022-10-06T01:00:18.880Z,1.70
2022-10-06T01:01:18.973Z,1.80
2022-10-06T01:02:18.888Z,1.90
2022-10-06T01:03:18.842Z,1.90
2022-10-06T01:04:18.827Z,1.70
2022-10-06T01:05:18.831Z,1.80
2022-10-06T01:06:18.818Z,1.80
2022-10-06T01:07:18.799Z,1.90
2022-10-06T01:08:18.785Z,1.90
2022-10-06T01:09:18.777Z,1.80
2022-10-06T01:10:18.762Z,1.70
2022-10-06T01:11:18.763Z,2.30
2022-10-06T01:12:18.747Z,1.60
2022-10-06T01:13:18.751Z,1.40
2022-10-06T01:14:18.720Z,1.70
2022-10-06T01:15:18.713Z,1.80
2022-10-06T01:16:18.754Z,1.60
2022-10-06T01:17:18.692Z,2.10
2022-10-06T01:18:18.681Z,2.00
2022-10-06T01:19:18.668Z,1.70
2022-10-06T01:20:18.656Z,1.70
2022-10-06T01:21:18.651Z,1.60
2022-10-06T01:22:18.644Z,1.90
2022-10-06T01:23:18.634Z,2.10
2022-10-06T01:24:18.615Z,1.90
2022-10-06T01:25:18.603Z,1.60
2022-10-06T01:26:18.591Z,1.90
2022-10-06T01:27:18.597Z,1.90
2022-10-06T01:28:18.652Z,1.70
2022-10-06T01:29:18.565Z,1.60
2022-10-06T01:30:18.550Z,1.60
2022-10-06T01:31:18.661Z,1.60
2022-10-06T01:32:18.541Z,1.50
2022-10-06T01:33:18.530Z,1.40
2022-10-06T01:34:18.524Z,1.80
2022-10-06T01:35:18.496Z,1.90
2022-10-06T01:36:18.491Z,1.70
2022-10-06T01:37:18.477Z,1.90
2022-10-06T01:38:18.462Z,1.80
2022-10-06T01:39:18.454Z,1.80
2022-10-06T01:40:18.515Z,1.90
2022-10-06T01:41:18.431Z,1.90
2022-10-06T01:42:18.420Z,2.00
2022-10-06T01:43:18.411Z,1.70
2022-10-06T01:44:18.397Z,1.60
2022-10-06T01:45:18.415Z,1.60
2022-10-06T01:46:18.419Z,1.60
2022-10-06T01:47:18.370Z,1.30
2022-10-06T01:48:18.354Z,1.80
2022-10-06T01:49:18.350Z,1.50
2022-10-06T01:50:18.337Z,1.70
2022-10-06T01:51:18.335Z,1.90
2022-10-06T01:52:18.315Z,1.80
2022-10-06T01:53:18.308Z,1.70
2022-10-06T01:54:18.290Z,1.70
2022-10-06T01:55:18.285Z,4.00
2022-10-06T01:56:18.291Z,1.80
2022-10-06T01:57:18.265Z,2.00
2022-10-06T01:58:18.251Z,1.70
2022-10-06T01:59:18.239Z,1.90
2022-10-06T02:00:18.228Z,1.70
2022-10-06T02:01:18.274Z,1.70
2022-10-06T02:02:18.219Z,1.60
2022-10-06T02:03:18.198Z,1.70
2022-10-06T02:04:18.216Z,1.80
2022-10-06T02:05:18.179Z,1.60
2022-10-06T02:06:18.230Z,1.80
2022-10-06T02:07:18.152Z,1.70
2022-10-06T02:08:18.143Z,1.60
2022-10-06T02:09:18.130Z,1.80
2022-10-06T02:10:18.116Z,1.60
2022-10-06T02:11:18.123Z,1.80
2022-10-06T02:12:18.112Z,1.60
2022-10-06T02:13:18.088Z,1.80
2022-10-06T02:14:18.087Z,1.50
2022-10-06T02:15:18.068Z,1.60
2022-10-06T02:16:18.161Z,1.70
2022-10-06T02:17:18.102Z,1.70
2022-10-06T02:18:18.039Z,1.30
2022-10-06T02:19:18.020Z,1.80
2022-10-06T02:20:18.012Z,1.60
2022-10-06T02:21:18.002Z,2.00
2022-10-06T02:22:18.011Z,1.70
2022-10-06T02:23:18.012Z,1.50
2022-10-06T02:24:17.968Z,1.60
2022-10-06T02:25:17.960Z,2.20
2022-10-06T02:26:17.949Z,1.50
2022-10-06T02:27:17.938Z,1.80
2022-10-06T02:28:18.066Z,1.40
2022-10-06T02:29:17.946Z,1.50
2022-10-06T02:30:17.915Z,1.70
2022-10-06T02:31:17.984Z,1.40
2022-10-06T02:32:17.884Z,1.40
2022-10-06T02:33:17.874Z,1.80
2022-10-06T02:34:17.858Z,1.60
2022-10-06T02:35:17.860Z,1.50
2022-10-06T02:36:17.843Z,1.70
2022-10-06T02:37:17.830Z,1.50
2022-10-06T02:38:17.816Z,1.70
2022-10-06T02:39:17.808Z,1.50
2022-10-06T02:40:17.797Z,1.50
2022-10-06T02:41:17.795Z,1.70
2022-10-06T02:42:17.774Z,1.70
2022-10-06T02:43:17.791Z,1.50
2022-10-06T02:44:17.751Z,1.80
2022-10-06T02:45:17.743Z,1.60
2022-10-06T02:46:17.786Z,1.70
2022-10-06T02:47:17.724Z,1.70
2022-10-06T02:48:17.708Z,1.50
2022-10-06T02:49:17.721Z,1.50
2022-10-06T02:50:17.689Z,1.70
2022-10-06T02:51:17.683Z,1.30
2022-10-06T02:52:17.667Z,1.50
2022-10-06T02:53:17.657Z,1.50
2022-10-06T02:54:17.649Z,1.70
2022-10-06T02:55:17.652Z,1.60
2022-10-06T02:56:17.629Z,1.60
2022-10-06T02:57:17.614Z,1.70
2022-10-06T02:58:17.606Z,1.80
2022-10-06T02:59:17.606Z,1.70
2022-10-06T03:00:17.581Z,1.60
2022-10-06T03:01:17.600Z,1.60
2022-10-06T03:02:17.741Z,1.60
2022-10-06T03:03:17.547Z,1.40
2022-10-06T03:04:17.554Z,1.40
2022-10-06T03:05:17.527Z,1.80
2022-10-06T03:06:17.526Z,1.80
2022-10-06T03:07:17.504Z,1.50
2022-10-06T03:08:17.500Z,1.40
2022-10-06T03:09:17.496Z,1.70
2022-10-06T03:10:17.483Z,1.50
2022-10-06T03:11:17.463Z,1.40
2022-10-06T03:12:17.455Z,1.50
2022-10-06T03:13:17.460Z,2.20
2022-10-06T03:14:21.597Z,2.20
2022-10-06T03:15:17.427Z,2.00
2022-10-06T03:16:17.528Z,1.90
2022-10-06T03:17:17.410Z,1.60
2022-10-06T03:18:17.390Z,1.50
2022-10-06T03:19:17.375Z,2.00
2022-10-06T03:20:17.370Z,1.60
2022-10-06T03:21:17.377Z,1.80
2022-10-06T03:22:17.363Z,1.90
2022-10-06T03:23:17.333Z,2.10
2022-10-06T03:24:17.341Z,2.50
2022-10-06T03:25:17.314Z,2.00
2022-10-06T03:26:17.311Z,2.00
2022-10-06T03:27:17.294Z,2.10
2022-10-06T03:28:17.362Z,1.90
2022-10-06T03:29:17.264Z,2.00
2022-10-06T03:30:17.272Z,1.70
2022-10-06T03:31:17.282Z,1.70
2022-10-06T03:32:17.248Z,1.50
2022-10-06T03:33:17.226Z,1.50
2022-10-06T03:34:17.232Z,2.10
2022-10-06T03:35:17.206Z,1.50
2022-10-06T03:36:17.194Z,1.70
2022-10-06T03:37:17.180Z,1.50
2022-10-06T03:38:17.185Z,1.60
2022-10-06T03:39:17.169Z,1.50
2022-10-06T03:40:17.152Z,1.40
2022-10-06T03:41:17.150Z,1.50
2022-10-06T03:42:17.152Z,1.80
2022-10-06T03:43:17.125Z,1.70
2022-10-06T03:44:17.119Z,1.70
2022-10-06T03:45:17.092Z,1.70
2022-10-06T03:46:17.092Z,1.60
2022-10-06T03:47:17.692Z,1.80
2022-10-06T03:48:17.078Z,1.70
2022-10-06T03:49:17.051Z,2.30
2022-10-06T03:50:17.044Z,1.80
2022-10-06T03:51:17.032Z,1.80
2022-10-06T03:52:17.021Z,1.60
2022-10-06T03:53:17.016Z,1.40
2022-10-06T03:54:17.001Z,1.80
2022-10-06T03:55:16.987Z,1.80
2022-10-06T03:56:17.012Z,1.60
2022-10-06T03:57:16.965Z,1.50
2022-10-06T03:58:16.957Z,1.50
2022-10-06T03:59:16.944Z,1.80
2022-10-06T04:00:16.955Z,1.80
2022-10-06T04:01:17.183Z,1.50
2022-10-06T04:02:17.007Z,1.50
2022-10-06T04:03:16.899Z,1.60
2022-10-06T04:04:16.900Z,1.20
2022-10-06T04:05:16.879Z,1.40
2022-10-06T04:06:16.870Z,1.50
2022-10-06T04:07:16.856Z,1.40
2022-10-06T04:08:16.860Z,1.60
2022-10-06T04:09:16.837Z,1.40
2022-10-06T04:10:16.828Z,1.80
2022-10-06T04:11:16.814Z,1.80
2022-10-06T04:12:16.824Z,1.50
2022-10-06T04:13:16.795Z,1.40
2022-10-06T04:14:16.783Z,1.80
2022-10-06T04:15:16.772Z,1.50
2022-10-06T04:16:16.809Z,1.40
2022-10-06T04:17:16.759Z,1.90
2022-10-06T04:18:16.757Z,1.90
2022-10-06T04:19:16.728Z,1.80
2022-10-06T04:20:16.722Z,1.50
2022-10-06T04:21:16.710Z,1.60
2022-10-06T04:22:16.723Z,1.60
2022-10-06T04:23:16.694Z,1.60
2022-10-06T04:24:16.678Z,1.60
2022-10-06T04:25:16.680Z,1.70
2022-10-06T04:26:16.659Z,1.50
2022-10-06T04:27:16.682Z,1.50
2022-10-06T04:28:16.717Z,2.10
2022-10-06T04:29:16.619Z,1.40
2022-10-06T04:30:16.614Z,1.50
2022-10-06T04:31:16.691Z,1.60
2022-10-06T04:32:16.589Z,1.50
2022-10-06T04:33:16.594Z,1.80
2022-10-06T04:34:16.570Z,1.30
2022-10-06T04:35:16.561Z,1.40
2022-10-06T04:36:16.552Z,1.50
2022-10-06T04:37:16.538Z,1.30
2022-10-06T04:38:16.536Z,1.70
2022-10-06T04:39:16.972Z,1.80
2022-10-06T04:40:16.505Z,1.30
2022-10-06T04:41:16.506Z,1.50
2022-10-06T04:42:16.482Z,1.40
2022-10-06T04:43:16.488Z,1.50
2022-10-06T04:44:16.462Z,1.40
2022-10-06T04:45:16.449Z,1.80
2022-10-06T04:46:41.707Z,1.70
2022-10-06T04:47:16.436Z,1.60
2022-10-06T04:48:16.432Z,1.30
2022-10-06T04:49:20.635Z,1.70
2022-10-06T04:50:16.409Z,1.70
2022-10-06T04:51:16.385Z,1.80
2022-10-06T04:52:16.389Z,1.50
2022-10-06T04:53:16.362Z,1.80
2022-10-06T04:54:16.360Z,1.60
2022-10-06T04:55:16.346Z,2.20
2022-10-06T04:56:16.331Z,1.60
2022-10-06T04:57:16.277Z,1.50
2022-10-06T04:58:16.312Z,1.70
2022-10-06T04:59:16.256Z,1.70
2022-10-06T05:00:16.238Z,1.60
2022-10-06T05:01:16.306Z,1.90
2022-10-06T05:02:16.298Z,1.80
2022-10-06T05:03:16.200Z,1.70
2022-10-06T05:04:16.250Z,1.90
2022-10-06T05:05:16.237Z,1.70
2022-10-06T05:06:16.228Z,1.60
2022-10-06T05:07:16.225Z,1.70
2022-10-06T05:08:16.158Z,1.50
2022-10-06T05:09:16.162Z,1.50
2022-10-06T05:10:16.130Z,1.70
2022-10-06T05:11:18.146Z,1.70
2022-10-06T05:12:16.118Z,1.70
2022-10-06T05:13:16.120Z,1.90
2022-10-06T05:14:16.085Z,1.90
2022-10-06T05:15:16.079Z,1.40
2022-10-06T05:16:16.154Z,1.60
2022-10-06T05:17:16.056Z,1.90
2022-10-06T05:18:16.048Z,1.70
2022-10-06T05:19:16.042Z,1.70
2022-10-06T05:20:16.033Z,1.90
2022-10-06T05:21:16.028Z,1.50
2022-10-06T05:22:16.003Z,1.60
2022-10-06T05:23:15.995Z,1.60
2022-10-06T05:24:15.989Z,1.60
2022-10-06T05:25:15.964Z,1.60
2022-10-06T05:26:15.953Z,1.60
2022-10-06T05:27:15.945Z,1.70
2022-10-06T05:28:15.968Z,1.60
2022-10-06T05:29:15.932Z,1.50
2022-10-06T05:30:15.913Z,1.90
2022-10-06T05:31:15.927Z,1.70
2022-10-06T05:32:15.914Z,1.60
2022-10-06T05:33:15.888Z,1.60
2022-10-06T05:34:15.871Z,1.60
2022-10-06T05:35:15.868Z,1.40
2022-10-06T05:36:15.847Z,1.70
2022-10-06T05:37:15.835Z,1.80
2022-10-06T05:38:15.825Z,1.60
2022-10-06T05:39:15.824Z,1.80
2022-10-06T05:40:15.805Z,1.90
2022-10-06T05:41:15.790Z,2.20
2022-10-06T05:42:15.783Z,2.50
2022-10-06T05:43:15.770Z,2.30
2022-10-06T05:44:15.777Z,1.80
2022-10-06T05:45:15.750Z,2.60
2022-10-06T05:46:15.801Z,2.80
2022-10-06T05:47:15.724Z,4.20
2022-10-06T05:48:15.716Z,2.50
2022-10-06T05:49:15.708Z,2.40
2022-10-06T05:50:15.702Z,2.40
2022-10-06T05:51:15.684Z,2.10
2022-10-06T05:52:15.676Z,2.50
2022-10-06T05:53:15.661Z,2.60
2022-10-06T05:54:15.649Z,3.20
2022-10-06T05:55:15.671Z,2.50
2022-10-06T05:56:15.639Z,3.20
2022-10-06T05:57:15.626Z,4.20
2022-10-06T05:58:18.466Z,4.60
2022-10-06T05:59:15.594Z,5.00
2022-10-06T06:00:15.585Z,4.40
2022-10-06T06:01:15.599Z,4.90
2022-10-06T06:02:15.742Z,4.50
2022-10-06T06:03:15.553Z,3.40
2022-10-06T06:04:15.546Z,3.30
2022-10-06T06:05:15.529Z,3.40
2022-10-06T06:06:15.522Z,3.20
2022-10-06T06:07:15.531Z,2.50
2022-10-06T06:08:15.498Z,3.10
2022-10-06T06:09:15.484Z,2.70
2022-10-06T06:10:15.474Z,2.50
2022-10-06T06:11:15.463Z,2.60
2022-10-06T06:12:15.454Z,2.60
2022-10-06T06:13:15.452Z,3.00
2022-10-06T06:14:15.431Z,3.10
2022-10-06T06:15:15.420Z,2.80
2022-10-06T06:16:15.471Z,3.50
2022-10-06T06:17:15.405Z,3.90
2022-10-06T06:18:15.386Z,4.20
2022-10-06T06:19:15.387Z,3.40
2022-10-06T06:20:15.371Z,3.50
2022-10-06T06:21:15.353Z,3.10
2022-10-06T06:22:15.345Z,3.00
2022-10-06T06:23:15.337Z,3.00
2022-10-06T06:24:15.344Z,3.00
2022-10-06T06:25:15.308Z,3.30
2022-10-06T06:26:15.308Z,3.50
2022-10-06T06:27:15.287Z,3.50
2022-10-06T06:28:15.375Z,3.20
2022-10-06T06:29:15.280Z,3.60
2022-10-06T06:30:15.256Z,4.00
2022-10-06T06:31:19.936Z,3.40
2022-10-06T06:32:15.252Z,3.40
2022-10-06T06:33:15.223Z,4.10
2022-10-06T06:34:15.226Z,3.40
2022-10-06T06:35:15.225Z,3.50
2022-10-06T06:36:15.192Z,3.10
2022-10-06T06:37:15.575Z,3.40
2022-10-06T06:38:15.182Z,2.80
2022-10-06T06:39:15.155Z,3.60
2022-10-06T06:40:15.148Z,3.70
2022-10-06T06:41:15.136Z,2.80
2022-10-06T06:42:15.128Z,2.70
2022-10-06T06:43:15.111Z,2.30
2022-10-06T06:44:15.116Z,2.30
2022-10-06T06:45:15.091Z,2.70
2022-10-06T06:46:15.224Z,2.50
2022-10-06T06:47:15.069Z,2.70
2022-10-06T06:48:15.062Z,2.70
2022-10-06T06:49:15.064Z,2.30
2022-10-06T06:50:15.040Z,2.00
2022-10-06T06:51:15.026Z,2.10
2022-10-06T06:52:15.018Z,2.00
2022-10-06T06:53:16.296Z,2.30
2022-10-06T06:54:14.997Z,2.20
2022-10-06T06:55:14.997Z,2.40
2022-10-06T06:56:14.976Z,2.30
2022-10-06T06:57:14.961Z,2.50
2022-10-06T06:58:14.952Z,1.80
2022-10-06T06:59:14.941Z,2.00
2022-10-06T07:00:14.941Z,2.30
2022-10-06T07:01:14.979Z,2.10
2022-10-06T07:02:14.950Z,2.30
2022-10-06T07:03:14.896Z,2.20
2022-10-06T07:04:14.887Z,2.40
2022-10-06T07:05:14.878Z,2.40
2022-10-06T07:06:14.873Z,2.30
2022-10-06T07:07:14.850Z,2.30
2022-10-06T07:08:14.845Z,2.40
2022-10-06T07:09:14.833Z,2.10
2022-10-06T07:10:14.818Z,2.10
2022-10-06T07:11:14.830Z,2.20
2022-10-06T07:12:14.801Z,1.80
2022-10-06T07:13:14.787Z,2.10
2022-10-06T07:14:14.785Z,2.40
2022-10-06T07:15:14.768Z,2.50
2022-10-06T07:16:14.814Z,2.20
2022-10-06T07:17:14.748Z,2.80
2022-10-06T07:18:14.745Z,2.00
2022-10-06T07:19:14.726Z,2.20
2022-10-06T07:20:14.752Z,2.70
2022-10-06T07:21:14.704Z,2.70
2022-10-06T07:22:14.700Z,2.70
2022-10-06T07:23:14.687Z,2.60
2022-10-06T07:24:14.673Z,2.30
2022-10-06T07:25:14.668Z,2.20
2022-10-06T07:26:14.645Z,2.40
2022-10-06T07:27:14.648Z,1.90
2022-10-06T07:28:14.714Z,1.80
2022-10-06T07:29:14.618Z,2.00
2022-10-06T07:30:14.603Z,1.60
2022-10-06T07:31:14.630Z,2.00
2022-10-06T07:32:14.585Z,1.90
2022-10-06T07:33:14.601Z,1.70
2022-10-06T07:34:14.571Z,1.70
2022-10-06T07:35:14.558Z,1.80
2022-10-06T07:36:14.540Z,1.60
2022-10-06T07:37:14.533Z,1.80
2022-10-06T07:38:14.516Z,1.60
2022-10-06T07:39:14.527Z,1.70
2022-10-06T07:40:14.499Z,1.80
2022-10-06T07:41:20.133Z,1.90
2022-10-06T07:42:14.482Z,1.80
2022-10-06T07:43:14.469Z,1.90
2022-10-06T07:44:14.469Z,1.80
2022-10-06T07:45:14.449Z,1.40
2022-10-06T07:46:14.494Z,1.50
2022-10-06T07:47:14.424Z,1.40
2022-10-06T07:48:14.570Z,1.70
2022-10-06T07:49:14.421Z,1.30
2022-10-06T07:50:14.394Z,1.60
2022-10-06T07:51:14.389Z,1.60
2022-10-06T07:52:14.369Z,1.30
2022-10-06T07:53:14.361Z,1.50
2022-10-06T07:54:14.348Z,1.60
2022-10-06T07:55:14.348Z,1.40
2022-10-06T07:56:14.341Z,1.30
2022-10-06T07:57:14.329Z,1.40
2022-10-06T07:58:14.309Z,1.30
2022-10-06T07:59:14.303Z,1.10
2022-10-06T08:00:14.283Z,1.30
2022-10-06T08:01:14.283Z,2.00
2022-10-06T08:02:14.328Z,1.50
2022-10-06T08:03:14.324Z,1.50
2022-10-06T08:04:14.240Z,1.40
2022-10-06T08:05:14.231Z,1.50
2022-10-06T08:06:14.245Z,1.30
2022-10-06T08:07:14.224Z,1.30
2022-10-06T08:08:14.203Z,1.00
2022-10-06T08:09:14.188Z,1.10
2022-10-06T08:10:14.173Z,0.80
2022-10-06T08:11:14.171Z,1.00
2022-10-06T08:12:14.169Z,0.80
2022-10-06T08:13:14.144Z,0.80
2022-10-06T08:14:14.135Z,0.80
2022-10-06T08:15:14.129Z,1.00
2022-10-06T08:16:14.202Z,1.00
2022-10-06T08:17:14.107Z,0.90
2022-10-06T08:18:33.761Z,0.80
2022-10-06T08:19:14.099Z,0.90
2022-10-06T08:20:14.087Z,0.90
2022-10-06T08:21:14.062Z,0.70
2022-10-06T08:22:14.055Z,0.90
2022-10-06T08:23:14.040Z,0.90
2022-10-06T08:24:14.032Z,0.70
2022-10-06T08:25:14.235Z,1.20
2022-10-06T08:26:14.007Z,0.80
2022-10-06T08:27:13.995Z,0.80
2022-10-06T08:28:14.036Z,0.80
2022-10-06T08:29:13.974Z,1.00
2022-10-06T08:30:13.961Z,1.00
2022-10-06T08:31:14.008Z,0.80
2022-10-06T08:32:13.940Z,0.80
2022-10-06T08:33:13.944Z,0.70
2022-10-06T08:34:13.933Z,0.70
2022-10-06T08:35:13.909Z,0.70
2022-10-06T08:36:13.892Z,0.80
2022-10-06T08:37:20.285Z,0.70
2022-10-06T08:38:13.900Z,0.60
2022-10-06T08:39:13.877Z,0.60
2022-10-06T08:40:13.849Z,0.50
2022-10-06T08:41:13.857Z,0.40
2022-10-06T08:42:13.842Z,0.80
2022-10-06T08:43:13.912Z,0.60
2022-10-06T08:44:13.824Z,0.90
2022-10-06T08:45:13.802Z,1.30
2022-10-06T08:46:13.792Z,1.30
2022-10-06T08:47:13.801Z,1.10
2022-10-06T08:48:13.765Z,1.60
2022-10-06T08:49:13.760Z,1.10
2022-10-06T08:50:13.757Z,1.10
2022-10-06T08:51:13.739Z,0.70
2022-10-06T08:52:13.726Z,1.00
2022-10-06T08:53:15.633Z,1.20
2022-10-06T08:54:13.703Z,0.90
2022-10-06T08:55:13.696Z,0.80
2022-10-06T08:56:13.691Z,0.90
2022-10-06T08:57:13.682Z,0.80
2022-10-06T08:58:13.664Z,0.60
2022-10-06T08:59:13.655Z,0.70
2022-10-06T09:00:14.955Z,0.80
2022-10-06T09:01:13.661Z,0.60
2022-10-06T09:02:13.676Z,0.70
2022-10-06T09:03:13.605Z,1.30
2022-10-06T09:04:13.592Z,0.80
2022-10-06T09:05:13.593Z,0.60
2022-10-06T09:06:13.576Z,0.50
2022-10-06T09:07:13.564Z,0.70
2022-10-06T09:08:13.563Z,0.60
2022-10-06T09:09:13.546Z,0.70
2022-10-06T09:10:13.527Z,0.70
2022-10-06T09:11:13.523Z,0.70
2022-10-06T09:12:13.525Z,0.80
2022-10-06T09:13:15.505Z,0.70
2022-10-06T09:14:13.485Z,0.50
2022-10-06T09:15:13.471Z,0.80
2022-10-06T09:16:13.523Z,0.60
2022-10-06T09:17:13.451Z,0.70
2022-10-06T09:18:13.451Z,0.70
2022-10-06T09:19:13.426Z,0.60
2022-10-06T09:20:13.414Z,0.60
2022-10-06T09:21:13.421Z,0.70
2022-10-06T09:22:13.407Z,0.50
2022-10-06T09:23:13.410Z,0.70
2022-10-06T09:24:13.368Z,0.70
2022-10-06T09:25:13.367Z,0.80
2022-10-06T09:26:13.353Z,0.70
2022-10-06T09:27:13.350Z,0.90
2022-10-06T09:28:13.397Z,0.70
2022-10-06T09:29:13.338Z,0.90
2022-10-06T09:30:13.320Z,0.90
2022-10-06T09:31:13.347Z,0.80
2022-10-06T09:32:13.286Z,0.60
2022-10-06T09:33:13.273Z,0.80
2022-10-06T09:34:13.259Z,0.70
2022-10-06T09:35:13.273Z,0.80
2022-10-06T09:36:13.241Z,0.80
2022-10-06T09:37:13.229Z,0.80
2022-10-06T09:38:13.238Z,0.90
2022-10-06T09:39:13.222Z,0.80
2022-10-06T09:40:13.196Z,0.90
2022-10-06T09:41:13.185Z,0.80
2022-10-06T09:42:13.174Z,0.80
2022-10-06T09:43:13.165Z,0.90
2022-10-06T09:44:13.150Z,0.80
2022-10-06T09:45:13.158Z,0.70
2022-10-06T09:46:13.145Z,0.80
2022-10-06T09:47:13.124Z,0.80
2022-10-06T09:48:13.110Z,0.90
2022-10-06T09:49:13.113Z,0.80
2022-10-06T09:50:13.097Z,0.90
2022-10-06T09:51:13.082Z,0.90
2022-10-06T09:52:13.075Z,0.70
2022-10-06T09:53:13.059Z,0.90
2022-10-06T09:54:13.044Z,0.80
2022-10-06T09:55:13.037Z,0.80
2022-10-06T09:56:13.032Z,0.90
2022-10-06T09:57:13.013Z,0.80
2022-10-06T09:58:13.010Z,0.80
2022-10-06T09:59:12.996Z,0.90
2022-10-06T10:00:12.978Z,0.90
2022-10-06T10:01:13.041Z,0.70
2022-10-06T10:02:12.956Z,0.70
2022-10-06T10:03:13.053Z,1.00
2022-10-06T10:04:20.539Z,0.70
2022-10-06T10:05:12.945Z,0.70
2022-10-06T10:06:12.920Z,0.90
2022-10-06T10:07:12.905Z,0.80
2022-10-06T10:08:12.893Z,0.90
2022-10-06T10:09:14.702Z,0.80
2022-10-06T10:10:12.882Z,0.80
2022-10-06T10:11:12.863Z,0.80
2022-10-06T10:12:12.855Z,1.00
2022-10-06T10:13:12.845Z,0.90
2022-10-06T10:14:12.828Z,0.90
2022-10-06T10:15:12.831Z,0.80
2022-10-06T10:16:12.862Z,1.00
2022-10-06T10:17:12.799Z,0.70
2022-10-06T10:18:12.873Z,0.70
2022-10-06T10:19:12.786Z,0.70
2022-10-06T10:20:12.764Z,0.80
2022-10-06T10:21:12.779Z,1.00
2022-10-06T10:22:12.753Z,0.80
2022-10-06T10:23:12.737Z,0.80
2022-10-06T10:24:12.741Z,0.70
2022-10-06T10:25:12.718Z,0.60
2022-10-06T10:26:12.703Z,0.70
2022-10-06T10:27:12.695Z,0.70
2022-10-06T10:28:12.710Z,0.60
2022-10-06T10:29:12.672Z,0.70
2022-10-06T10:30:12.671Z,0.80
2022-10-06T10:31:12.695Z,0.50
2022-10-06T10:32:12.638Z,0.60
2022-10-06T10:33:12.680Z,0.60
2022-10-06T10:34:23.566Z,0.70
2022-10-06T10:35:12.619Z,0.50
2022-10-06T10:36:12.606Z,0.60
2022-10-06T10:37:12.587Z,0.80
2022-10-06T10:38:14.889Z,0.90
2022-10-06T10:39:12.565Z,0.60
2022-10-06T10:40:12.552Z,0.60
2022-10-06T10:41:12.563Z,0.50
2022-10-06T10:42:12.531Z,0.60
2022-10-06T10:43:12.529Z,0.60
2022-10-06T10:44:12.507Z,0.80
2022-10-06T10:45:12.501Z,0.60
2022-10-06T10:46:12.578Z,0.70
2022-10-06T10:47:12.501Z,0.70
2022-10-06T10:48:12.486Z,0.60
2022-10-06T10:49:12.457Z,0.80
2022-10-06T10:50:12.446Z,0.70
2022-10-06T10:51:12.436Z,0.60
2022-10-06T10:52:12.440Z,0.60
2022-10-06T10:53:12.431Z,0.70
2022-10-06T10:54:12.411Z,0.60
2022-10-06T10:55:12.391Z,0.70
2022-10-06T10:56:12.377Z,0.70
2022-10-06T10:57:12.379Z,0.70
2022-10-06T10:58:12.363Z,0.70
2022-10-06T10:59:12.362Z,0.80
2022-10-06T11:00:12.335Z,0.80
2022-10-06T11:01:12.400Z,0.70
2022-10-06T11:02:12.406Z,0.50
2022-10-06T11:03:12.321Z,0.70
2022-10-06T11:04:12.303Z,0.80
2022-10-06T11:05:12.287Z,0.90
2022-10-06T11:06:12.274Z,0.90
2022-10-06T11:07:12.274Z,0.80
2022-10-06T11:08:12.270Z,0.70
2022-10-06T11:09:12.245Z,0.80
2022-10-06T11:10:12.294Z,0.60
2022-10-06T11:11:12.223Z,0.60
2022-10-06T11:12:12.212Z,0.70
2022-10-06T11:13:12.203Z,0.70
2022-10-06T11:14:12.207Z,0.70
2022-10-06T11:15:12.180Z,0.70
2022-10-06T11:16:12.236Z,0.60
2022-10-06T11:17:12.160Z,0.80
2022-10-06T11:18:12.145Z,0.70
2022-10-06T11:19:12.135Z,0.90
2022-10-06T11:20:12.185Z,0.90
2022-10-06T11:21:12.118Z,0.70
2022-10-06T11:22:12.102Z,0.70
2022-10-06T11:23:12.099Z,0.80
2022-10-06T11:24:12.084Z,1.20
2022-10-06T11:25:12.085Z,0.90
2022-10-06T11:26:12.065Z,0.80
2022-10-06T11:27:12.063Z,1.00
2022-10-06T11:28:12.082Z,0.80
2022-10-06T11:29:12.035Z,0.70
2022-10-06T11:30:12.116Z,0.70
2022-10-06T11:31:12.067Z,0.80
2022-10-06T11:32:12.013Z,0.70
2022-10-06T11:33:11.989Z,0.50
2022-10-06T11:34:11.997Z,0.60
2022-10-06T11:35:11.981Z,0.60
2022-10-06T11:36:11.968Z,0.90
2022-10-06T11:37:11.947Z,0.80
2022-10-06T11:38:11.955Z,0.60
2022-10-06T11:39:11.922Z,0.70
2022-10-06T11:40:11.922Z,0.70
2022-10-06T11:41:11.901Z,0.80
2022-10-06T11:42:11.896Z,0.80
2022-10-06T11:43:11.895Z,0.60
2022-10-06T11:44:11.876Z,0.70
2022-10-06T11:45:11.862Z,0.60
2022-10-06T11:46:11.988Z,0.70
2022-10-06T11:47:11.847Z,0.80
2022-10-06T11:48:11.833Z,0.70
2022-10-06T11:49:11.819Z,0.80
2022-10-06T11:50:11.839Z,0.90
2022-10-06T11:51:11.812Z,0.80
2022-10-06T11:52:11.811Z,0.80
2022-10-06T11:53:11.777Z,0.80
2022-10-06T11:54:11.775Z,0.70
2022-10-06T11:55:11.756Z,0.90
2022-10-06T11:56:11.752Z,0.70
2022-10-06T11:57:11.739Z,0.90
2022-10-06T11:58:37.376Z,0.90
2022-10-06T11:59:11.722Z,0.80
2022-10-06T12:00:11.717Z,0.90
2022-10-06T12:01:11.695Z,0.80
2022-10-06T12:02:11.833Z,0.80
2022-10-06T12:03:11.795Z,0.70
2022-10-06T12:04:11.665Z,0.70
2022-10-06T12:05:35.072Z,0.70
2022-10-06T12:06:11.650Z,0.80
2022-10-06T12:07:11.643Z,0.80
2022-10-06T12:08:11.638Z,0.80
2022-10-06T12:09:11.614Z,0.80
2022-10-06T12:10:11.604Z,0.90
2022-10-06T12:11:11.752Z,0.80
2022-10-06T12:12:11.583Z,0.80
2022-10-06T12:13:31.783Z,0.80
2022-10-06T12:15:59.724Z,0.80
2022-10-06T12:17:12.812Z,0.90
2022-10-06T12:17:20.158Z,0.90
2022-10-06T12:18:09.181Z,0.90
2022-10-06T12:19:09.172Z,0.90
2022-10-06T12:20:09.238Z,0.90
2022-10-06T12:21:09.148Z,0.90
2022-10-06T12:22:09.137Z,0.90
2022-10-06T12:23:09.134Z,0.90
2022-10-06T12:24:09.132Z,0.90
2022-10-06T12:25:09.112Z,0.80
2022-10-06T12:26:09.107Z,0.90
2022-10-06T12:27:09.109Z,0.70
2022-10-06T12:28:09.112Z,0.70
2022-10-06T12:29:09.071Z,0.80
2022-10-06T12:30:09.130Z,0.90
2022-10-06T12:31:09.097Z,0.80
2022-10-06T12:32:09.035Z,0.80
2022-10-06T12:33:09.044Z,0.80
2022-10-06T12:34:09.016Z,0.80
2022-10-06T12:35:09.007Z,0.90
2022-10-06T12:36:09.008Z,0.80
2022-10-06T12:37:08.989Z,0.90
2022-10-06T12:38:08.972Z,1.00
2022-10-06T12:39:08.966Z,0.80
2022-10-06T12:40:09.043Z,0.80
2022-10-06T12:41:08.966Z,0.80
2022-10-06T12:42:08.931Z,0.80
2022-10-06T12:43:08.926Z,0.90
2022-10-06T12:44:08.910Z,0.80
2022-10-06T12:45:08.902Z,0.90
2022-10-06T12:46:08.948Z,0.60
2022-10-06T12:47:08.890Z,0.60
2022-10-06T12:48:08.868Z,0.60
2022-10-06T12:49:08.890Z,0.90
2022-10-06T12:50:08.851Z,0.90
2022-10-06T12:51:08.840Z,0.80
2022-10-06T12:52:08.852Z,0.80
2022-10-06T12:53:08.822Z,0.80
2022-10-06T12:54:08.805Z,0.80
2022-10-06T12:55:08.798Z,0.80
2022-10-06T12:56:08.787Z,0.90
2022-10-06T12:57:08.812Z,0.90
2022-10-06T12:58:08.777Z,0.90
2022-10-06T12:59:08.758Z,0.60
2022-10-06T13:00:08.755Z,0.80
2022-10-06T13:01:08.762Z,1.10
2022-10-06T13:02:08.791Z,0.90
2022-10-06T13:03:08.719Z,0.90
2022-10-06T13:04:08.717Z,1.10
2022-10-06T13:05:08.694Z,1.00
2022-10-06T13:06:08.691Z,1.00
2022-10-06T13:07:08.898Z,0.80
2022-10-06T13:08:08.668Z,0.90
2022-10-06T13:09:08.652Z,0.80
2022-10-06T13:10:08.651Z,0.80
2022-10-06T13:11:08.632Z,0.90
2022-10-06T13:12:08.678Z,0.90
2022-10-06T13:13:08.623Z,0.90
2022-10-06T13:14:08.596Z,1.00
2022-10-06T13:15:08.603Z,0.80
2022-10-06T13:16:08.578Z,0.80
2022-10-06T13:17:08.634Z,0.90
2022-10-06T13:18:08.554Z,1.00
2022-10-06T13:19:08.562Z,0.90